KABQ

Albuquerque International Sunport Airport

Albuquerque, New Mexico, USA
METAR KABQ 251652Z 08013G19KT 10SM FEW035 FEW250 14/01 A3030 RMK AO2 SLP213 MTN TOPS OBSC SE T01390006
Observed Flight Rules
Apr-25 @ 16:52 UTC (an hour ago) Visual Flight Rules
Wind Visibility Clouds
80° at 13 knots
 Gusting to 19 knots
10 miles
  • Few at 3,500' AGL
  • Few at 25,000' AGL
Temperatures Readings
Current 14°C / 57°F
Dewpoint 1°C / 34°F
Humidity 41%
Altimeter 30.3" Hg
Pressure 1021.3 hPa
Elevation 1618
METAR KABQ 251652Z 08013G19KT 10SM FEW035 FEW250 14/01 A3030 RMK AO2 SLP213 MTN TOPS OBSC SE T01390006
Observed Flight Rules
Apr-25 @ 16:52 UTC
(an hour ago)
VFR
Wind Visibility
80° at 13 knots
 Gusting to 19 knots
10 miles
Clouds
  • Few at 3,500' AGL
  • Few at 25,000' AGL
Temperature Dewpoint
14°C / 57°F 1°C / 34°F
Humidity Altimeter Pressure
41% 30.3" Hg 1021.3 hPa